sensor_id;sensor_type;location;lat;lon;timestamp;P1;durP1;ratioP1;P2;durP2;ratioP2
56641;SDS011;76646;51.506;5.304;2024-02-28T00:00:48;50.97;;;30.27;;
56641;SDS011;76646;51.506;5.304;2024-02-28T00:03:34;42.37;;;25.50;;
56641;SDS011;76646;51.506;5.304;2024-02-28T00:06:00;37.30;;;25.93;;
56641;SDS011;76646;51.506;5.304;2024-02-28T00:08:26;37.40;;;24.77;;
56641;SDS011;76646;51.506;5.304;2024-02-28T00:10:52;37.30;;;24.93;;
56641;SDS011;76646;51.506;5.304;2024-02-28T00:13:21;41.63;;;25.47;;
56641;SDS011;76646;51.506;5.304;2024-02-28T00:15:49;36.63;;;21.75;;
56641;SDS011;76646;51.506;5.304;2024-02-28T00:18:16;38.37;;;24.83;;
56641;SDS011;76646;51.506;5.304;2024-02-28T00:20:43;32.87;;;22.23;;
56641;SDS011;76646;51.506;5.304;2024-02-28T00:23:11;30.42;;;21.67;;
56641;SDS011;76646;51.506;5.304;2024-02-28T00:25:37;36.03;;;23.77;;
56641;SDS011;76646;51.506;5.304;2024-02-28T00:28:05;32.63;;;23.30;;
56641;SDS011;76646;51.506;5.304;2024-02-28T00:30:30;29.47;;;20.80;;
56641;SDS011;76646;51.506;5.304;2024-02-28T00:33:00;36.13;;;26.95;;
56641;SDS011;76646;51.506;5.304;2024-02-28T00:35:26;29.63;;;22.80;;
56641;SDS011;76646;51.506;5.304;2024-02-28T00:37:52;32.73;;;21.70;;
56641;SDS011;76646;51.506;5.304;2024-02-28T00:40:18;28.40;;;20.23;;
56641;SDS011;76646;51.506;5.304;2024-02-28T00:42:46;30.10;;;20.53;;
56641;SDS011;76646;51.506;5.304;2024-02-28T00:45:11;23.07;;;19.13;;
56641;SDS011;76646;51.506;5.304;2024-02-28T00:47:38;27.00;;;22.10;;
56641;SDS011;76646;51.506;5.304;2024-02-28T00:50:05;32.67;;;23.93;;
56641;SDS011;76646;51.506;5.304;2024-02-28T00:52:32;25.90;;;19.77;;
56641;SDS011;76646;51.506;5.304;2024-02-28T00:54:57;30.23;;;20.80;;
56641;SDS011;76646;51.506;5.304;2024-02-28T00:57:24;33.77;;;24.37;;
56641;SDS011;76646;51.506;5.304;2024-02-28T00:59:49;31.33;;;22.90;;
56641;SDS011;76646;51.506;5.304;2024-02-28T01:02:15;34.10;;;24.20;;
56641;SDS011;76646;51.506;5.304;2024-02-28T01:04:42;31.03;;;21.90;;
56641;SDS011;76646;51.506;5.304;2024-02-28T01:07:08;31.57;;;23.23;;
56641;SDS011;76646;51.506;5.304;2024-02-28T01:09:33;34.43;;;25.23;;
56641;SDS011;76646;51.506;5.304;2024-02-28T01:11:59;29.33;;;21.67;;
56641;SDS011;76646;51.506;5.304;2024-02-28T01:14:25;28.07;;;19.83;;
56641;SDS011;76646;51.506;5.304;2024-02-28T01:16:51;31.83;;;25.33;;
56641;SDS011;76646;51.506;5.304;2024-02-28T01:19:16;32.17;;;23.30;;
56641;SDS011;76646;51.506;5.304;2024-02-28T01:21:44;31.60;;;24.20;;
56641;SDS011;76646;51.506;5.304;2024-02-28T01:24:10;28.33;;;23.40;;
56641;SDS011;76646;51.506;5.304;2024-02-28T01:26:36;31.57;;;22.40;;
56641;SDS011;76646;51.506;5.304;2024-02-28T01:29:02;33.97;;;22.63;;
56641;SDS011;76646;51.506;5.304;2024-02-28T01:31:29;32.40;;;21.67;;
56641;SDS011;76646;51.506;5.304;2024-02-28T01:33:55;32.97;;;21.13;;
56641;SDS011;76646;51.506;5.304;2024-02-28T01:36:23;32.97;;;24.70;;
56641;SDS011;76646;51.506;5.304;2024-02-28T01:38:48;32.43;;;23.77;;
56641;SDS011;76646;51.506;5.304;2024-02-28T01:41:14;35.47;;;22.20;;
56641;SDS011;76646;51.506;5.304;2024-02-28T01:43:42;30.97;;;21.87;;
56641;SDS011;76646;51.506;5.304;2024-02-28T01:46:22;31.33;;;21.03;;
56641;SDS011;76646;51.506;5.304;2024-02-28T01:48:52;30.37;;;22.97;;
56641;SDS011;76646;51.506;5.304;2024-02-28T01:51:21;32.37;;;23.03;;
56641;SDS011;76646;51.506;5.304;2024-02-28T01:53:47;36.83;;;28.00;;
56641;SDS011;76646;51.506;5.304;2024-02-28T01:56:15;36.00;;;22.57;;
56641;SDS011;76646;51.506;5.304;2024-02-28T01:58:42;35.70;;;24.57;;
56641;SDS011;76646;51.506;5.304;2024-02-28T02:01:10;37.73;;;25.77;;
56641;SDS011;76646;51.506;5.304;2024-02-28T02:03:38;36.70;;;21.03;;
56641;SDS011;76646;51.506;5.304;2024-02-28T02:06:04;26.97;;;22.10;;
56641;SDS011;76646;51.506;5.304;2024-02-28T02:08:30;26.57;;;21.83;;
56641;SDS011;76646;51.506;5.304;2024-02-28T02:10:58;32.43;;;23.83;;
56641;SDS011;76646;51.506;5.304;2024-02-28T02:13:23;35.47;;;23.70;;
56641;SDS011;76646;51.506;5.304;2024-02-28T02:15:49;34.53;;;20.63;;
56641;SDS011;76646;51.506;5.304;2024-02-28T02:18:16;35.67;;;23.83;;
56641;SDS011;76646;51.506;5.304;2024-02-28T02:20:43;28.10;;;22.07;;
56641;SDS011;76646;51.506;5.304;2024-02-28T02:23:10;35.33;;;24.53;;
56641;SDS011;76646;51.506;5.304;2024-02-28T02:25:44;36.30;;;25.50;;
56641;SDS011;76646;51.506;5.304;2024-02-28T02:28:13;32.07;;;24.83;;
56641;SDS011;76646;51.506;5.304;2024-02-28T02:30:42;35.67;;;24.47;;
56641;SDS011;76646;51.506;5.304;2024-02-28T02:33:08;34.00;;;24.87;;
56641;SDS011;76646;51.506;5.304;2024-02-28T02:35:35;35.17;;;25.50;;
56641;SDS011;76646;51.506;5.304;2024-02-28T02:38:00;29.27;;;23.17;;
56641;SDS011;76646;51.506;5.304;2024-02-28T02:40:27;32.97;;;21.80;;
56641;SDS011;76646;51.506;5.304;2024-02-28T02:42:53;36.37;;;23.27;;
56641;SDS011;76646;51.506;5.304;2024-02-28T02:45:20;32.77;;;23.10;;
56641;SDS011;76646;51.506;5.304;2024-02-28T02:47:45;41.13;;;25.23;;
56641;SDS011;76646;51.506;5.304;2024-02-28T02:50:11;32.10;;;22.83;;
56641;SDS011;76646;51.506;5.304;2024-02-28T02:52:37;44.43;;;24.50;;
56641;SDS011;76646;51.506;5.304;2024-02-28T02:55:03;28.63;;;22.07;;
56641;SDS011;76646;51.506;5.304;2024-02-28T02:57:29;36.97;;;27.20;;
56641;SDS011;76646;51.506;5.304;2024-02-28T02:59:57;29.67;;;22.90;;
56641;SDS011;76646;51.506;5.304;2024-02-28T03:02:23;33.23;;;22.17;;
56641;SDS011;76646;51.506;5.304;2024-02-28T03:04:49;33.40;;;24.50;;
56641;SDS011;76646;51.506;5.304;2024-02-28T03:07:14;27.03;;;20.27;;
56641;SDS011;76646;51.506;5.304;2024-02-28T03:09:42;28.63;;;23.37;;
56641;SDS011;76646;51.506;5.304;2024-02-28T03:12:07;33.30;;;22.90;;
56641;SDS011;76646;51.506;5.304;2024-02-28T03:14:37;32.20;;;22.53;;
56641;SDS011;76646;51.506;5.304;2024-02-28T03:17:02;28.07;;;20.53;;
56641;SDS011;76646;51.506;5.304;2024-02-28T03:19:28;28.57;;;21.97;;
56641;SDS011;76646;51.506;5.304;2024-02-28T03:21:54;31.30;;;22.27;;
56641;SDS011;76646;51.506;5.304;2024-02-28T03:24:24;31.63;;;20.77;;
56641;SDS011;76646;51.506;5.304;2024-02-28T03:26:49;29.53;;;22.83;;
56641;SDS011;76646;51.506;5.304;2024-02-28T03:29:16;36.30;;;23.00;;
56641;SDS011;76646;51.506;5.304;2024-02-28T03:31:41;33.00;;;24.03;;
56641;SDS011;76646;51.506;5.304;2024-02-28T03:34:07;36.73;;;23.40;;
56641;SDS011;76646;51.506;5.304;2024-02-28T03:36:34;28.10;;;19.97;;
56641;SDS011;76646;51.506;5.304;2024-02-28T03:39:01;31.53;;;24.00;;
56641;SDS011;76646;51.506;5.304;2024-02-28T03:41:26;31.30;;;22.17;;
56641;SDS011;76646;51.506;5.304;2024-02-28T03:43:52;30.00;;;22.70;;
56641;SDS011;76646;51.506;5.304;2024-02-28T03:46:18;31.90;;;23.83;;
56641;SDS011;76646;51.506;5.304;2024-02-28T03:48:44;29.50;;;22.33;;
56641;SDS011;76646;51.506;5.304;2024-02-28T03:51:10;27.60;;;21.63;;
56641;SDS011;76646;51.506;5.304;2024-02-28T03:53:36;42.10;;;25.80;;
56641;SDS011;76646;51.506;5.304;2024-02-28T03:56:02;33.30;;;25.83;;
56641;SDS011;76646;51.506;5.304;2024-02-28T03:58:28;35.17;;;26.80;;
56641;SDS011;76646;51.506;5.304;2024-02-28T04:00:56;42.03;;;24.07;;
56641;SDS011;76646;51.506;5.304;2024-02-28T04:03:22;32.47;;;23.00;;
56641;SDS011;76646;51.506;5.304;2024-02-28T04:05:49;32.60;;;23.80;;
56641;SDS011;76646;51.506;5.304;2024-02-28T04:08:15;29.53;;;20.47;;
56641;SDS011;76646;51.506;5.304;2024-02-28T04:10:40;34.23;;;25.30;;
56641;SDS011;76646;51.506;5.304;2024-02-28T04:13:06;36.43;;;24.30;;
56641;SDS011;76646;51.506;5.304;2024-02-28T04:15:32;34.07;;;25.43;;
56641;SDS011;76646;51.506;5.304;2024-02-28T04:17:58;36.87;;;24.63;;
56641;SDS011;76646;51.506;5.304;2024-02-28T04:20:23;28.37;;;22.77;;
56641;SDS011;76646;51.506;5.304;2024-02-28T04:22:49;37.57;;;25.70;;
56641;SDS011;76646;51.506;5.304;2024-02-28T04:25:17;36.40;;;25.80;;
56641;SDS011;76646;51.506;5.304;2024-02-28T04:27:45;33.17;;;27.30;;
56641;SDS011;76646;51.506;5.304;2024-02-28T04:30:13;35.60;;;24.03;;
56641;SDS011;76646;51.506;5.304;2024-02-28T04:32:38;30.93;;;22.17;;
56641;SDS011;76646;51.506;5.304;2024-02-28T04:35:04;37.07;;;26.43;;
56641;SDS011;76646;51.506;5.304;2024-02-28T04:37:30;37.30;;;23.23;;
56641;SDS011;76646;51.506;5.304;2024-02-28T04:39:56;39.50;;;25.20;;
56641;SDS011;76646;51.506;5.304;2024-02-28T04:42:21;34.53;;;21.90;;
56641;SDS011;76646;51.506;5.304;2024-02-28T04:44:47;34.57;;;24.37;;
56641;SDS011;76646;51.506;5.304;2024-02-28T04:47:13;33.37;;;20.30;;
56641;SDS011;76646;51.506;5.304;2024-02-28T04:49:39;32.83;;;22.83;;
56641;SDS011;76646;51.506;5.304;2024-02-28T04:52:05;33.23;;;22.37;;
56641;SDS011;76646;51.506;5.304;2024-02-28T04:54:33;33.67;;;22.37;;
56641;SDS011;76646;51.506;5.304;2024-02-28T04:56:59;27.93;;;19.97;;
56641;SDS011;76646;51.506;5.304;2024-02-28T04:59:26;30.10;;;21.43;;
56641;SDS011;76646;51.506;5.304;2024-02-28T05:01:52;33.07;;;22.47;;
56641;SDS011;76646;51.506;5.304;2024-02-28T05:04:19;27.90;;;23.17;;
56641;SDS011;76646;51.506;5.304;2024-02-28T05:06:45;35.40;;;21.97;;
56641;SDS011;76646;51.506;5.304;2024-02-28T05:09:12;32.10;;;23.77;;
56641;SDS011;76646;51.506;5.304;2024-02-28T05:11:38;41.27;;;24.10;;
56641;SDS011;76646;51.506;5.304;2024-02-28T05:14:04;33.17;;;22.90;;
56641;SDS011;76646;51.506;5.304;2024-02-28T05:16:30;33.90;;;24.33;;
56641;SDS011;76646;51.506;5.304;2024-02-28T05:18:57;33.27;;;25.83;;
56641;SDS011;76646;51.506;5.304;2024-02-28T05:21:22;50.47;;;28.13;;
56641;SDS011;76646;51.506;5.304;2024-02-28T05:23:48;37.37;;;25.47;;
56641;SDS011;76646;51.506;5.304;2024-02-28T05:26:14;31.80;;;24.20;;
56641;SDS011;76646;51.506;5.304;2024-02-28T05:28:41;39.80;;;26.97;;
56641;SDS011;76646;51.506;5.304;2024-02-28T05:31:23;42.03;;;30.77;;
56641;SDS011;76646;51.506;5.304;2024-02-28T05:33:51;41.70;;;26.40;;
56641;SDS011;76646;51.506;5.304;2024-02-28T05:36:17;37.07;;;25.97;;
56641;SDS011;76646;51.506;5.304;2024-02-28T05:38:45;42.00;;;28.97;;
56641;SDS011;76646;51.506;5.304;2024-02-28T05:41:10;42.57;;;28.43;;
56641;SDS011;76646;51.506;5.304;2024-02-28T05:43:36;36.00;;;26.47;;
56641;SDS011;76646;51.506;5.304;2024-02-28T05:46:03;37.17;;;25.73;;
56641;SDS011;76646;51.506;5.304;2024-02-28T05:48:30;32.80;;;24.90;;
56641;SDS011;76646;51.506;5.304;2024-02-28T05:50:56;32.97;;;24.50;;
56641;SDS011;76646;51.506;5.304;2024-02-28T05:53:22;41.27;;;24.43;;
56641;SDS011;76646;51.506;5.304;2024-02-28T05:55:52;42.85;;;23.15;;
56641;SDS011;76646;51.506;5.304;2024-02-28T05:58:19;36.73;;;27.37;;
56641;SDS011;76646;51.506;5.304;2024-02-28T06:00:45;39.37;;;25.37;;
56641;SDS011;76646;51.506;5.304;2024-02-28T06:03:11;34.00;;;26.30;;
56641;SDS011;76646;51.506;5.304;2024-02-28T06:05:36;36.63;;;23.73;;
56641;SDS011;76646;51.506;5.304;2024-02-28T06:08:02;35.47;;;26.93;;
56641;SDS011;76646;51.506;5.304;2024-02-28T06:10:31;42.63;;;26.70;;
56641;SDS011;76646;51.506;5.304;2024-02-28T06:12:56;38.20;;;23.03;;
56641;SDS011;76646;51.506;5.304;2024-02-28T06:15:22;47.23;;;26.10;;
56641;SDS011;76646;51.506;5.304;2024-02-28T06:17:48;36.17;;;23.80;;
56641;SDS011;76646;51.506;5.304;2024-02-28T06:20:14;38.80;;;27.50;;
56641;SDS011;76646;51.506;5.304;2024-02-28T06:22:40;43.77;;;29.90;;
56641;SDS011;76646;51.506;5.304;2024-02-28T06:25:06;45.23;;;24.03;;
56641;SDS011;76646;51.506;5.304;2024-02-28T06:27:39;39.43;;;28.77;;
56641;SDS011;76646;51.506;5.304;2024-02-28T06:30:05;37.60;;;26.13;;
56641;SDS011;76646;51.506;5.304;2024-02-28T06:32:32;34.47;;;25.77;;
56641;SDS011;76646;51.506;5.304;2024-02-28T06:34:58;37.23;;;26.50;;
56641;SDS011;76646;51.506;5.304;2024-02-28T06:37:24;41.47;;;25.93;;
56641;SDS011;76646;51.506;5.304;2024-02-28T06:39:49;35.83;;;23.40;;
56641;SDS011;76646;51.506;5.304;2024-02-28T06:42:15;36.97;;;28.00;;
56641;SDS011;76646;51.506;5.304;2024-02-28T06:44:41;41.70;;;24.60;;
56641;SDS011;76646;51.506;5.304;2024-02-28T06:47:07;44.80;;;26.03;;
56641;SDS011;76646;51.506;5.304;2024-02-28T06:49:34;40.10;;;23.90;;
56641;SDS011;76646;51.506;5.304;2024-02-28T06:52:00;38.03;;;22.23;;
56641;SDS011;76646;51.506;5.304;2024-02-28T06:54:27;47.70;;;28.40;;
56641;SDS011;76646;51.506;5.304;2024-02-28T06:56:54;39.13;;;26.57;;
56641;SDS011;76646;51.506;5.304;2024-02-28T06:59:20;42.43;;;25.33;;
56641;SDS011;76646;51.506;5.304;2024-02-28T07:01:46;40.47;;;26.20;;
56641;SDS011;76646;51.506;5.304;2024-02-28T07:04:12;41.20;;;22.83;;
56641;SDS011;76646;51.506;5.304;2024-02-28T07:06:38;39.57;;;25.77;;
56641;SDS011;76646;51.506;5.304;2024-02-28T07:09:07;35.40;;;21.63;;
56641;SDS011;76646;51.506;5.304;2024-02-28T07:11:34;37.30;;;23.10;;
56641;SDS011;76646;51.506;5.304;2024-02-28T07:14:00;38.07;;;23.73;;
56641;SDS011;76646;51.506;5.304;2024-02-28T07:16:31;30.93;;;21.77;;
56641;SDS011;76646;51.506;5.304;2024-02-28T07:19:03;35.13;;;23.63;;
56641;SDS011;76646;51.506;5.304;2024-02-28T07:21:29;38.47;;;24.20;;
56641;SDS011;76646;51.506;5.304;2024-02-28T07:23:56;32.67;;;22.17;;
56641;SDS011;76646;51.506;5.304;2024-02-28T07:26:23;37.33;;;24.00;;
56641;SDS011;76646;51.506;5.304;2024-02-28T07:28:48;36.43;;;21.50;;
56641;SDS011;76646;51.506;5.304;2024-02-28T07:31:20;30.23;;;21.47;;
56641;SDS011;76646;51.506;5.304;2024-02-28T07:33:46;32.67;;;23.30;;
56641;SDS011;76646;51.506;5.304;2024-02-28T07:36:13;34.77;;;23.63;;
56641;SDS011;76646;51.506;5.304;2024-02-28T07:38:41;33.10;;;20.90;;
56641;SDS011;76646;51.506;5.304;2024-02-28T07:41:07;33.37;;;21.57;;
56641;SDS011;76646;51.506;5.304;2024-02-28T07:43:33;30.97;;;23.50;;
56641;SDS011;76646;51.506;5.304;2024-02-28T07:46:07;34.83;;;19.98;;
56641;SDS011;76646;51.506;5.304;2024-02-28T07:48:33;31.07;;;21.17;;
56641;SDS011;76646;51.506;5.304;2024-02-28T07:51:00;30.03;;;20.00;;
56641;SDS011;76646;51.506;5.304;2024-02-28T07:53:28;44.20;;;24.90;;
56641;SDS011;76646;51.506;5.304;2024-02-28T07:55:55;30.73;;;20.63;;
56641;SDS011;76646;51.506;5.304;2024-02-28T07:58:21;32.80;;;20.83;;
56641;SDS011;76646;51.506;5.304;2024-02-28T08:00:47;37.03;;;23.20;;
56641;SDS011;76646;51.506;5.304;2024-02-28T08:03:13;36.60;;;23.93;;
56641;SDS011;76646;51.506;5.304;2024-02-28T08:05:40;34.40;;;20.73;;
56641;SDS011;76646;51.506;5.304;2024-02-28T08:08:06;35.13;;;21.83;;
56641;SDS011;76646;51.506;5.304;2024-02-28T08:10:32;30.00;;;22.17;;
56641;SDS011;76646;51.506;5.304;2024-02-28T08:12:57;29.30;;;19.60;;
56641;SDS011;76646;51.506;5.304;2024-02-28T08:15:23;33.17;;;23.00;;
56641;SDS011;76646;51.506;5.304;2024-02-28T08:17:49;29.20;;;21.30;;
56641;SDS011;76646;51.506;5.304;2024-02-28T08:20:15;30.43;;;19.87;;
56641;SDS011;76646;51.506;5.304;2024-02-28T08:22:43;31.40;;;21.17;;
56641;SDS011;76646;51.506;5.304;2024-02-28T08:25:10;30.23;;;20.50;;
56641;SDS011;76646;51.506;5.304;2024-02-28T08:27:38;29.03;;;19.33;;
56641;SDS011;76646;51.506;5.304;2024-02-28T08:30:04;29.80;;;19.40;;
56641;SDS011;76646;51.506;5.304;2024-02-28T08:32:34;32.63;;;20.73;;
56641;SDS011;76646;51.506;5.304;2024-02-28T08:35:01;29.60;;;19.13;;
56641;SDS011;76646;51.506;5.304;2024-02-28T08:37:27;31.40;;;22.03;;
56641;SDS011;76646;51.506;5.304;2024-02-28T08:39:54;31.17;;;20.10;;
56641;SDS011;76646;51.506;5.304;2024-02-28T08:42:26;31.25;;;22.85;;
56641;SDS011;76646;51.506;5.304;2024-02-28T08:44:53;34.30;;;19.83;;
56641;SDS011;76646;51.506;5.304;2024-02-28T08:47:23;38.90;;;20.25;;
56641;SDS011;76646;51.506;5.304;2024-02-28T08:49:49;26.50;;;17.43;;
56641;SDS011;76646;51.506;5.304;2024-02-28T08:52:15;31.27;;;20.77;;
56641;SDS011;76646;51.506;5.304;2024-02-28T08:54:41;29.27;;;20.97;;
56641;SDS011;76646;51.506;5.304;2024-02-28T08:57:08;31.60;;;19.73;;
56641;SDS011;76646;51.506;5.304;2024-02-28T08:59:35;27.27;;;21.10;;
56641;SDS011;76646;51.506;5.304;2024-02-28T09:02:01;30.17;;;20.57;;
56641;SDS011;76646;51.506;5.304;2024-02-28T09:04:29;28.37;;;20.50;;
56641;SDS011;76646;51.506;5.304;2024-02-28T09:06:56;35.93;;;21.73;;
56641;SDS011;76646;51.506;5.304;2024-02-28T09:09:22;30.37;;;19.83;;
56641;SDS011;76646;51.506;5.304;2024-02-28T09:11:48;33.30;;;22.17;;
56641;SDS011;76646;51.506;5.304;2024-02-28T09:14:15;33.77;;;22.07;;
56641;SDS011;76646;51.506;5.304;2024-02-28T09:16:40;30.40;;;19.97;;
56641;SDS011;76646;51.506;5.304;2024-02-28T09:19:06;29.40;;;21.27;;
56641;SDS011;76646;51.506;5.304;2024-02-28T09:21:32;30.00;;;20.20;;
56641;SDS011;76646;51.506;5.304;2024-02-28T09:23:57;31.53;;;20.90;;
56641;SDS011;76646;51.506;5.304;2024-02-28T09:26:23;31.70;;;21.87;;
56641;SDS011;76646;51.506;5.304;2024-02-28T09:28:49;28.37;;;19.17;;
56641;SDS011;76646;51.506;5.304;2024-02-28T09:31:18;27.73;;;21.00;;
56641;SDS011;76646;51.506;5.304;2024-02-28T09:33:44;33.03;;;18.77;;
56641;SDS011;76646;51.506;5.304;2024-02-28T09:36:12;28.33;;;20.60;;
56641;SDS011;76646;51.506;5.304;2024-02-28T09:38:38;35.33;;;20.20;;
56641;SDS011;76646;51.506;5.304;2024-02-28T09:41:06;30.23;;;21.40;;
56641;SDS011;76646;51.506;5.304;2024-02-28T09:43:31;35.13;;;19.80;;
56641;SDS011;76646;51.506;5.304;2024-02-28T09:46:07;30.03;;;18.77;;
56641;SDS011;76646;51.506;5.304;2024-02-28T09:48:40;28.65;;;19.20;;
56641;SDS011;76646;51.506;5.304;2024-02-28T09:51:07;28.93;;;20.27;;
56641;SDS011;76646;51.506;5.304;2024-02-28T09:53:34;31.17;;;18.43;;
56641;SDS011;76646;51.506;5.304;2024-02-28T09:56:01;34.87;;;20.83;;
56641;SDS011;76646;51.506;5.304;2024-02-28T09:58:28;31.03;;;20.83;;
56641;SDS011;76646;51.506;5.304;2024-02-28T10:00:57;27.43;;;19.30;;
56641;SDS011;76646;51.506;5.304;2024-02-28T10:03:26;27.67;;;19.03;;
56641;SDS011;76646;51.506;5.304;2024-02-28T10:05:55;30.90;;;18.93;;
56641;SDS011;76646;51.506;5.304;2024-02-28T10:08:22;29.77;;;18.50;;
56641;SDS011;76646;51.506;5.304;2024-02-28T10:10:48;28.83;;;20.13;;
56641;SDS011;76646;51.506;5.304;2024-02-28T10:13:17;32.90;;;20.03;;
56641;SDS011;76646;51.506;5.304;2024-02-28T10:15:44;27.83;;;21.05;;
56641;SDS011;76646;51.506;5.304;2024-02-28T10:18:10;25.27;;;18.37;;
56641;SDS011;76646;51.506;5.304;2024-02-28T10:20:38;27.67;;;21.00;;
56641;SDS011;76646;51.506;5.304;2024-02-28T10:23:05;26.30;;;19.90;;
56641;SDS011;76646;51.506;5.304;2024-02-28T10:25:41;27.98;;;19.48;;
56641;SDS011;76646;51.506;5.304;2024-02-28T10:28:11;35.00;;;20.88;;
56641;SDS011;76646;51.506;5.304;2024-02-28T10:30:42;29.13;;;19.35;;
56641;SDS011;76646;51.506;5.304;2024-02-28T10:33:12;26.63;;;17.10;;
56641;SDS011;76646;51.506;5.304;2024-02-28T10:35:42;28.30;;;19.38;;
56641;SDS011;76646;51.506;5.304;2024-02-28T10:38:11;35.33;;;25.73;;
56641;SDS011;76646;51.506;5.304;2024-02-28T10:40:41;34.22;;;18.15;;
56641;SDS011;76646;51.506;5.304;2024-02-28T10:45:36;28.98;;;18.40;;
56641;SDS011;76646;51.506;5.304;2024-02-28T10:48:09;28.33;;;19.80;;
56641;SDS011;76646;51.506;5.304;2024-02-28T10:50:38;28.48;;;18.48;;
56641;SDS011;76646;51.506;5.304;2024-02-28T10:53:03;21.90;;;16.45;;
56641;SDS011;76646;51.506;5.304;2024-02-28T10:55:34;23.10;;;17.63;;
56641;SDS011;76646;51.506;5.304;2024-02-28T10:58:08;32.90;;;17.33;;
56641;SDS011;76646;51.506;5.304;2024-02-28T11:00:40;25.08;;;14.77;;
56641;SDS011;76646;51.506;5.304;2024-02-28T11:03:11;23.95;;;16.83;;
56641;SDS011;76646;51.506;5.304;2024-02-28T11:05:41;32.30;;;17.85;;
56641;SDS011;76646;51.506;5.304;2024-02-28T11:08:10;24.27;;;17.30;;
56641;SDS011;76646;51.506;5.304;2024-02-28T11:10:42;20.20;;;14.10;;
56641;SDS011;76646;51.506;5.304;2024-02-28T11:13:10;20.55;;;14.85;;
56641;SDS011;76646;51.506;5.304;2024-02-28T11:15:47;30.77;;;20.13;;
56641;SDS011;76646;51.506;5.304;2024-02-28T11:18:13;21.92;;;16.15;;
56641;SDS011;76646;51.506;5.304;2024-02-28T11:20:39;23.75;;;16.95;;
56641;SDS011;76646;51.506;5.304;2024-02-28T11:23:06;22.50;;;18.40;;
56641;SDS011;76646;51.506;5.304;2024-02-28T11:25:36;22.17;;;15.13;;
56641;SDS011;76646;51.506;5.304;2024-02-28T11:28:02;22.48;;;16.02;;
56641;SDS011;76646;51.506;5.304;2024-02-28T11:30:28;21.80;;;17.20;;
56641;SDS011;76646;51.506;5.304;2024-02-28T11:32:54;20.17;;;14.75;;
56641;SDS011;76646;51.506;5.304;2024-02-28T11:35:26;19.75;;;15.32;;
56641;SDS011;76646;51.506;5.304;2024-02-28T11:37:56;23.88;;;15.10;;
56641;SDS011;76646;51.506;5.304;2024-02-28T11:40:26;17.63;;;12.60;;
56641;SDS011;76646;51.506;5.304;2024-02-28T11:42:52;20.65;;;13.38;;
56641;SDS011;76646;51.506;5.304;2024-02-28T11:45:20;21.58;;;14.55;;
56641;SDS011;76646;51.506;5.304;2024-02-28T11:47:46;19.35;;;15.20;;
56641;SDS011;76646;51.506;5.304;2024-02-28T11:50:13;21.70;;;12.88;;
56641;SDS011;76646;51.506;5.304;2024-02-28T11:52:45;18.90;;;12.30;;
56641;SDS011;76646;51.506;5.304;2024-02-28T11:55:11;19.23;;;14.75;;
56641;SDS011;76646;51.506;5.304;2024-02-28T11:57:37;19.13;;;12.15;;
56641;SDS011;76646;51.506;5.304;2024-02-28T12:00:04;17.85;;;14.00;;
56641;SDS011;76646;51.506;5.304;2024-02-28T12:02:34;19.73;;;13.73;;
56641;SDS011;76646;51.506;5.304;2024-02-28T12:05:04;18.90;;;13.40;;
56641;SDS011;76646;51.506;5.304;2024-02-28T12:07:31;15.85;;;10.82;;
56641;SDS011;76646;51.506;5.304;2024-02-28T12:09:58;17.80;;;12.98;;
56641;SDS011;76646;51.506;5.304;2024-02-28T12:12:24;19.70;;;12.73;;
56641;SDS011;76646;51.506;5.304;2024-02-28T12:14:52;18.17;;;10.40;;
56641;SDS011;76646;51.506;5.304;2024-02-28T12:17:18;17.92;;;10.95;;
56641;SDS011;76646;51.506;5.304;2024-02-28T12:19:47;17.65;;;11.40;;
56641;SDS011;76646;51.506;5.304;2024-02-28T12:22:12;17.88;;;12.82;;
56641;SDS011;76646;51.506;5.304;2024-02-28T12:24:39;14.73;;;10.13;;
56641;SDS011;76646;51.506;5.304;2024-02-28T12:27:04;16.58;;;12.48;;
56641;SDS011;76646;51.506;5.304;2024-02-28T12:29:30;20.75;;;13.77;;
56641;SDS011;76646;51.506;5.304;2024-02-28T12:31:57;15.00;;;10.05;;
56641;SDS011;76646;51.506;5.304;2024-02-28T12:34:23;17.08;;;12.23;;
56641;SDS011;76646;51.506;5.304;2024-02-28T12:36:49;18.77;;;11.73;;
56641;SDS011;76646;51.506;5.304;2024-02-28T12:39:14;18.58;;;13.00;;
56641;SDS011;76646;51.506;5.304;2024-02-28T12:41:40;20.20;;;13.32;;
56641;SDS011;76646;51.506;5.304;2024-02-28T12:44:06;23.85;;;13.90;;
56641;SDS011;76646;51.506;5.304;2024-02-28T12:46:36;20.20;;;13.05;;
56641;SDS011;76646;51.506;5.304;2024-02-28T12:49:02;22.55;;;12.57;;
56641;SDS011;76646;51.506;5.304;2024-02-28T12:51:35;31.73;;;17.23;;
56641;SDS011;76646;51.506;5.304;2024-02-28T12:54:03;25.95;;;15.95;;
56641;SDS011;76646;51.506;5.304;2024-02-28T12:56:29;24.20;;;14.02;;
56641;SDS011;76646;51.506;5.304;2024-02-28T12:58:55;25.27;;;16.55;;
56641;SDS011;76646;51.506;5.304;2024-02-28T13:01:21;25.45;;;17.02;;
56641;SDS011;76646;51.506;5.304;2024-02-28T13:03:46;20.55;;;13.68;;
56641;SDS011;76646;51.506;5.304;2024-02-28T13:06:14;20.35;;;14.25;;
56641;SDS011;76646;51.506;5.304;2024-02-28T13:08:40;19.05;;;14.27;;
56641;SDS011;76646;51.506;5.304;2024-02-28T13:11:08;28.27;;;13.68;;
56641;SDS011;76646;51.506;5.304;2024-02-28T13:13:33;17.25;;;12.55;;
56641;SDS011;76646;51.506;5.304;2024-02-28T13:15:59;21.48;;;12.82;;
56641;SDS011;76646;51.506;5.304;2024-02-28T13:18:25;18.40;;;12.20;;
56641;SDS011;76646;51.506;5.304;2024-02-28T13:20:51;20.40;;;13.40;;
56641;SDS011;76646;51.506;5.304;2024-02-28T13:23:17;18.52;;;12.05;;
56641;SDS011;76646;51.506;5.304;2024-02-28T13:25:44;18.42;;;13.52;;
56641;SDS011;76646;51.506;5.304;2024-02-28T13:28:10;24.30;;;13.40;;
56641;SDS011;76646;51.506;5.304;2024-02-28T13:30:36;15.73;;;12.10;;
56641;SDS011;76646;51.506;5.304;2024-02-28T13:33:02;25.35;;;15.77;;
56641;SDS011;76646;51.506;5.304;2024-02-28T13:35:31;20.85;;;14.05;;
56641;SDS011;76646;51.506;5.304;2024-02-28T13:37:57;19.83;;;15.05;;
56641;SDS011;76646;51.506;5.304;2024-02-28T13:40:26;22.67;;;16.58;;
56641;SDS011;76646;51.506;5.304;2024-02-28T13:42:52;28.88;;;15.57;;
56641;SDS011;76646;51.506;5.304;2024-02-28T13:45:19;21.25;;;14.07;;
56641;SDS011;76646;51.506;5.304;2024-02-28T13:47:44;22.20;;;13.00;;
56641;SDS011;76646;51.506;5.304;2024-02-28T13:50:11;18.92;;;15.38;;
56641;SDS011;76646;51.506;5.304;2024-02-28T13:52:39;20.92;;;12.38;;
56641;SDS011;76646;51.506;5.304;2024-02-28T13:55:07;18.50;;;12.23;;
56641;SDS011;76646;51.506;5.304;2024-02-28T13:57:34;25.67;;;14.32;;
56641;SDS011;76646;51.506;5.304;2024-02-28T14:00:00;16.52;;;12.75;;
56641;SDS011;76646;51.506;5.304;2024-02-28T14:02:26;16.42;;;11.93;;
56641;SDS011;76646;51.506;5.304;2024-02-28T14:04:53;20.30;;;12.95;;
56641;SDS011;76646;51.506;5.304;2024-02-28T14:07:19;20.15;;;13.35;;
56641;SDS011;76646;51.506;5.304;2024-02-28T14:09:45;16.92;;;12.65;;
56641;SDS011;76646;51.506;5.304;2024-02-28T14:12:11;17.77;;;11.93;;
56641;SDS011;76646;51.506;5.304;2024-02-28T14:14:38;18.30;;;13.20;;
56641;SDS011;76646;51.506;5.304;2024-02-28T14:17:05;22.95;;;12.90;;
56641;SDS011;76646;51.506;5.304;2024-02-28T14:19:33;18.10;;;12.45;;
56641;SDS011;76646;51.506;5.304;2024-02-28T14:22:00;16.20;;;12.10;;